sensor_id;sensor_type;location;lat;lon;timestamp;pressure;altitude;pressure_sealevel;temperature;humidity
27144;BME280;14672;50.250;8.312;2023-08-30T00:00:55;98194.72;;;16.74;74.17
27144;BME280;14672;50.250;8.312;2023-08-30T00:03:21;98190.03;;;16.77;73.38
27144;BME280;14672;50.250;8.312;2023-08-30T00:05:46;98194.22;;;16.81;73.13
27144;BME280;14672;50.250;8.312;2023-08-30T00:08:12;98186.38;;;16.76;73.83
27144;BME280;14672;50.250;8.312;2023-08-30T00:10:48;98193.44;;;16.81;73.41
27144;BME280;14672;50.250;8.312;2023-08-30T00:13:14;98199.41;;;16.77;74.10
27144;BME280;14672;50.250;8.312;2023-08-30T00:15:40;98187.72;;;16.86;73.90
27144;BME280;14672;50.250;8.312;2023-08-30T00:18:06;98188.22;;;16.85;74.10
27144;BME280;14672;50.250;8.312;2023-08-30T00:20:31;98188.75;;;16.89;73.08
27144;BME280;14672;50.250;8.312;2023-08-30T00:22:57;98186.41;;;16.82;73.59
27144;BME280;14672;50.250;8.312;2023-08-30T00:25:23;98185.34;;;16.79;73.44
27144;BME280;14672;50.250;8.312;2023-08-30T00:27:48;98190.56;;;16.75;74.25
27144;BME280;14672;50.250;8.312;2023-08-30T00:30:14;98178.84;;;16.79;73.71
27144;BME280;14672;50.250;8.312;2023-08-30T00:32:40;98188.97;;;16.74;73.78
27144;BME280;14672;50.250;8.312;2023-08-30T00:35:06;98184.84;;;16.86;73.54
27144;BME280;14672;50.250;8.312;2023-08-30T00:37:32;98186.41;;;16.87;73.22
27144;BME280;14672;50.250;8.312;2023-08-30T00:39:58;98184.31;;;16.82;74.06
27144;BME280;14672;50.250;8.312;2023-08-30T00:42:25;98184.06;;;16.86;73.59
27144;BME280;14672;50.250;8.312;2023-08-30T00:44:51;98186.16;;;16.91;73.48
27144;BME280;14672;50.250;8.312;2023-08-30T00:47:16;98179.41;;;17.00;72.44
27144;BME280;14672;50.250;8.312;2023-08-30T00:49:42;98174.66;;;16.97;72.72
27144;BME280;14672;50.250;8.312;2023-08-30T00:52:10;98177.00;;;16.92;73.19
27144;BME280;14672;50.250;8.312;2023-08-30T00:54:36;98163.47;;;16.93;73.23
27144;BME280;14672;50.250;8.312;2023-08-30T00:57:03;98173.88;;;16.79;74.44
27144;BME280;14672;50.250;8.312;2023-08-30T00:59:33;98165.53;;;16.81;73.79
27144;BME280;14672;50.250;8.312;2023-08-30T01:01:59;98162.16;;;16.83;73.59
27144;BME280;14672;50.250;8.312;2023-08-30T01:04:27;98154.59;;;16.85;73.47
27144;BME280;14672;50.250;8.312;2023-08-30T01:06:53;98157.19;;;16.83;73.63
27144;BME280;14672;50.250;8.312;2023-08-30T01:09:19;98161.91;;;16.86;73.13
27144;BME280;14672;50.250;8.312;2023-08-30T01:12:10;98155.09;;;16.78;73.69
27144;BME280;14672;50.250;8.312;2023-08-30T01:14:44;98162.13;;;16.77;73.61
27144;BME280;14672;50.250;8.312;2023-08-30T01:17:12;98154.81;;;16.76;73.75
27144;BME280;14672;50.250;8.312;2023-08-30T01:19:59;98164.97;;;16.66;74.89
27144;BME280;14672;50.250;8.312;2023-08-30T01:28:21;98149.59;;;16.80;73.35
27144;BME280;14672;50.250;8.312;2023-08-30T01:30:48;98146.47;;;16.73;73.75
27144;BME280;14672;50.250;8.312;2023-08-30T01:33:15;98144.13;;;16.71;73.49
27144;BME280;14672;50.250;8.312;2023-08-30T01:35:43;98138.91;;;16.70;73.90
27144;BME280;14672;50.250;8.312;2023-08-30T01:38:10;98137.09;;;16.67;73.83
27144;BME280;14672;50.250;8.312;2023-08-30T01:40:41;98139.16;;;16.66;73.89
27144;BME280;14672;50.250;8.312;2023-08-30T01:43:08;98142.28;;;16.68;74.13
27144;BME280;14672;50.250;8.312;2023-08-30T01:45:41;98134.75;;;16.71;73.85
27144;BME280;14672;50.250;8.312;2023-08-30T01:48:12;98139.19;;;16.72;73.93
27144;BME280;14672;50.250;8.312;2023-08-30T01:50:40;98129.25;;;16.67;74.05
27144;BME280;14672;50.250;8.312;2023-08-30T01:53:12;98132.66;;;16.71;74.11
27144;BME280;14672;50.250;8.312;2023-08-30T01:55:39;98129.25;;;16.73;74.25
27144;BME280;14672;50.250;8.312;2023-08-30T01:58:06;98125.06;;;16.68;74.50
27144;BME280;14672;50.250;8.312;2023-08-30T02:00:32;98127.72;;;16.77;74.16
27144;BME280;14672;50.250;8.312;2023-08-30T02:02:58;98137.13;;;16.83;73.40
27144;BME280;14672;50.250;8.312;2023-08-30T02:05:24;98136.06;;;16.81;73.86
27144;BME280;14672;50.250;8.312;2023-08-30T02:08:17;98135.53;;;16.77;74.09
27144;BME280;14672;50.250;8.312;2023-08-30T02:10:58;98138.94;;;16.75;74.27
27144;BME280;14672;50.250;8.312;2023-08-30T02:13:27;98135.25;;;16.69;74.28
27144;BME280;14672;50.250;8.312;2023-08-30T02:15:56;98122.19;;;16.68;74.28
27144;BME280;14672;50.250;8.312;2023-08-30T02:18:25;98128.47;;;16.72;74.23
27144;BME280;14672;50.250;8.312;2023-08-30T02:20:52;98117.53;;;16.71;73.89
27144;BME280;14672;50.250;8.312;2023-08-30T02:23:18;98113.88;;;16.70;73.93
27144;BME280;14672;50.250;8.312;2023-08-30T02:25:44;98121.47;;;16.79;73.57
27144;BME280;14672;50.250;8.312;2023-08-30T02:28:10;98111.25;;;16.72;74.30
27144;BME280;14672;50.250;8.312;2023-08-30T02:30:37;98121.97;;;16.66;74.12
27144;BME280;14672;50.250;8.312;2023-08-30T02:33:04;98119.88;;;16.72;73.87
27144;BME280;14672;50.250;8.312;2023-08-30T02:35:30;98128.47;;;16.72;74.46
27144;BME280;14672;50.250;8.312;2023-08-30T02:37:56;98126.91;;;16.77;73.85
27144;BME280;14672;50.250;8.312;2023-08-30T02:40:22;98118.81;;;16.70;74.09
27144;BME280;14672;50.250;8.312;2023-08-30T02:42:48;98121.97;;;16.66;74.44
27144;BME280;14672;50.250;8.312;2023-08-30T02:45:17;98120.41;;;16.71;74.62
27144;BME280;14672;50.250;8.312;2023-08-30T02:47:45;98118.56;;;16.73;74.06
27144;BME280;14672;50.250;8.312;2023-08-30T02:50:11;98118.56;;;16.73;74.69
27144;BME280;14672;50.250;8.312;2023-08-30T02:52:36;98117.53;;;16.76;74.21
27144;BME280;14672;50.250;8.312;2023-08-30T02:55:02;98125.88;;;16.74;74.00
27144;BME280;14672;50.250;8.312;2023-08-30T02:57:28;98113.63;;;16.74;74.65
27144;BME280;14672;50.250;8.312;2023-08-30T02:59:54;98113.38;;;16.77;74.81
27144;BME280;14672;50.250;8.312;2023-08-30T03:02:20;98111.03;;;16.81;74.02
27144;BME280;14672;50.250;8.312;2023-08-30T03:04:45;98119.38;;;16.85;74.00
27144;BME280;14672;50.250;8.312;2023-08-30T03:07:11;98111.28;;;16.83;74.02
27144;BME280;14672;50.250;8.312;2023-08-30T03:09:37;98109.72;;;16.71;74.97
27144;BME280;14672;50.250;8.312;2023-08-30T03:12:04;98104.50;;;16.75;74.84
27144;BME280;14672;50.250;8.312;2023-08-30T03:14:30;98110.00;;;16.79;74.50
27144;BME280;14672;50.250;8.312;2023-08-30T03:16:56;98110.75;;;16.74;74.73
27144;BME280;14672;50.250;8.312;2023-08-30T03:19:21;98112.84;;;16.79;74.20
27144;BME280;14672;50.250;8.312;2023-08-30T03:21:47;98114.13;;;16.72;74.47
27144;BME280;14672;50.250;8.312;2023-08-30T03:24:13;98106.06;;;16.76;74.51
27144;BME280;14672;50.250;8.312;2023-08-30T03:26:43;98103.19;;;16.76;74.45
27144;BME280;14672;50.250;8.312;2023-08-30T03:29:08;98106.59;;;16.75;74.86
27144;BME280;14672;50.250;8.312;2023-08-30T03:31:34;98097.44;;;16.76;74.51
27144;BME280;14672;50.250;8.312;2023-08-30T03:34:00;98097.72;;;16.78;74.31
27144;BME280;14672;50.250;8.312;2023-08-30T03:36:26;98104.22;;;16.84;73.77
27144;BME280;14672;50.250;8.312;2023-08-30T03:38:52;98107.38;;;16.81;73.89
27144;BME280;14672;50.250;8.312;2023-08-30T03:41:18;98094.06;;;16.78;73.66
27144;BME280;14672;50.250;8.312;2023-08-30T03:43:46;98095.38;;;16.82;73.33
27144;BME280;14672;50.250;8.312;2023-08-30T03:46:12;98096.16;;;16.77;73.53
27144;BME280;14672;50.250;8.312;2023-08-30T03:48:38;98101.13;;;16.82;74.42
27144;BME280;14672;50.250;8.312;2023-08-30T03:51:04;98098.25;;;16.82;73.67
27144;BME280;14672;50.250;8.312;2023-08-30T03:53:29;98101.13;;;16.82;73.23
27144;BME280;14672;50.250;8.312;2023-08-30T03:55:55;98094.34;;;16.80;73.45
27144;BME280;14672;50.250;8.312;2023-08-30T03:58:21;98096.41;;;16.85;73.78
27144;BME280;14672;50.250;8.312;2023-08-30T04:00:47;98091.19;;;16.78;73.80
27144;BME280;14672;50.250;8.312;2023-08-30T04:03:15;98085.97;;;16.71;74.61
27144;BME280;14672;50.250;8.312;2023-08-30T04:05:41;98096.66;;;16.70;74.07
27144;BME280;14672;50.250;8.312;2023-08-30T04:08:08;98094.06;;;16.72;74.08
27144;BME280;14672;50.250;8.312;2023-08-30T04:10:38;98093.00;;;16.70;74.13
27144;BME280;14672;50.250;8.312;2023-08-30T04:13:05;98083.63;;;16.69;73.70
27144;BME280;14672;50.250;8.312;2023-08-30T04:15:38;98091.97;;;16.62;74.42
27144;BME280;14672;50.250;8.312;2023-08-30T04:18:06;98093.00;;;16.70;73.36
27144;BME280;14672;50.250;8.312;2023-08-30T04:20:32;98089.09;;;16.62;73.16
27144;BME280;14672;50.250;8.312;2023-08-30T04:22:59;98083.34;;;16.62;72.91
27144;BME280;14672;50.250;8.312;2023-08-30T04:25:29;98078.91;;;16.55;73.18
27144;BME280;14672;50.250;8.312;2023-08-30T04:27:56;98077.84;;;16.47;72.94
27144;BME280;14672;50.250;8.312;2023-08-30T04:30:22;98089.56;;;16.43;72.55
27144;BME280;14672;50.250;8.312;2023-08-30T04:32:48;98089.56;;;16.43;72.80
27144;BME280;14672;50.250;8.312;2023-08-30T04:35:14;98095.28;;;16.38;72.51
27144;BME280;14672;50.250;8.312;2023-08-30T04:37:39;98105.94;;;16.32;73.40
27144;BME280;14672;50.250;8.312;2023-08-30T04:40:07;98099.94;;;16.30;73.26
27144;BME280;14672;50.250;8.312;2023-08-30T04:42:37;98098.66;;;16.31;72.89
27144;BME280;14672;50.250;8.312;2023-08-30T04:45:04;98097.59;;;16.34;73.67
27144;BME280;14672;50.250;8.312;2023-08-30T04:47:30;98091.09;;;16.28;74.13
27144;BME280;14672;50.250;8.312;2023-08-30T04:49:56;98086.38;;;16.25;73.29
27144;BME280;14672;50.250;8.312;2023-08-30T04:52:22;98092.09;;;16.19;73.69
27144;BME280;14672;50.250;8.312;2023-08-30T04:54:48;98096.53;;;16.26;73.62
27144;BME280;14672;50.250;8.312;2023-08-30T04:57:15;98094.19;;;16.30;73.28
27144;BME280;14672;50.250;8.312;2023-08-30T04:59:43;98092.63;;;16.29;73.44
27144;BME280;14672;50.250;8.312;2023-08-30T05:02:09;98090.03;;;16.25;73.13
27144;BME280;14672;50.250;8.312;2023-08-30T05:04:35;98094.19;;;16.24;73.63
27144;BME280;14672;50.250;8.312;2023-08-30T05:07:01;98089.22;;;16.19;73.50
27144;BME280;14672;50.250;8.312;2023-08-30T05:09:29;98089.75;;;16.18;73.87
27144;BME280;14672;50.250;8.312;2023-08-30T05:11:55;98092.59;;;16.18;73.76
27144;BME280;14672;50.250;8.312;2023-08-30T05:14:21;98090.81;;;16.26;73.25
27144;BME280;14672;50.250;8.312;2023-08-30T05:16:49;98087.63;;;16.13;73.78
27144;BME280;14672;50.250;8.312;2023-08-30T05:19:15;98083.69;;;16.05;74.54
27144;BME280;14672;50.250;8.312;2023-08-30T05:21:45;98088.91;;;16.06;73.74
27144;BME280;14672;50.250;8.312;2023-08-30T05:24:11;98082.44;;;16.11;73.80
27144;BME280;14672;50.250;8.312;2023-08-30T05:26:37;98080.81;;;16.05;73.72
27144;BME280;14672;50.250;8.312;2023-08-30T05:29:03;98088.16;;;16.11;73.85
27144;BME280;14672;50.250;8.312;2023-08-30T05:31:29;98083.69;;;16.05;74.73
27144;BME280;14672;50.250;8.312;2023-08-30T05:33:55;98084.22;;;16.03;73.88
27144;BME280;14672;50.250;8.312;2023-08-30T05:36:21;98086.56;;;16.05;73.97
27144;BME280;14672;50.250;8.312;2023-08-30T05:38:47;98078.53;;;16.14;73.69
27144;BME280;14672;50.250;8.312;2023-08-30T05:41:12;98076.16;;;16.07;74.39
27144;BME280;14672;50.250;8.312;2023-08-30T05:43:38;98074.34;;;16.10;74.66
27144;BME280;14672;50.250;8.312;2023-08-30T05:46:04;98067.59;;;16.18;74.02
27144;BME280;14672;50.250;8.312;2023-08-30T05:48:30;98076.66;;;16.06;74.06
27144;BME280;14672;50.250;8.312;2023-08-30T05:50:56;98072.00;;;16.14;73.95
27144;BME280;14672;50.250;8.312;2023-08-30T05:53:23;98076.16;;;16.13;74.01
27144;BME280;14672;50.250;8.312;2023-08-30T05:55:49;98073.03;;;16.11;74.41
27144;BME280;14672;50.250;8.312;2023-08-30T05:58:15;98077.19;;;16.10;74.93
27144;BME280;14672;50.250;8.312;2023-08-30T06:00:41;98076.94;;;16.08;74.88
27144;BME280;14672;50.250;8.312;2023-08-30T06:03:13;98078.56;;;16.20;75.01
27144;BME280;14672;50.250;8.312;2023-08-30T06:05:39;98086.13;;;16.23;74.55
27144;BME280;14672;50.250;8.312;2023-08-30T06:08:05;98072.56;;;16.29;74.20
27144;BME280;14672;50.250;8.312;2023-08-30T06:10:30;98074.13;;;16.30;74.84
27144;BME280;14672;50.250;8.312;2023-08-30T06:12:56;98074.13;;;16.30;74.99
27144;BME280;14672;50.250;8.312;2023-08-30T06:15:22;98081.69;;;16.27;75.84
27144;BME280;14672;50.250;8.312;2023-08-30T06:17:48;98067.38;;;16.38;75.29
27144;BME280;14672;50.250;8.312;2023-08-30T06:20:15;98073.38;;;16.40;75.40
27144;BME280;14672;50.250;8.312;2023-08-30T06:22:43;98070.81;;;16.54;74.71
27144;BME280;14672;50.250;8.312;2023-08-30T06:25:09;98058.28;;;16.51;75.04
27144;BME280;14672;50.250;8.312;2023-08-30T06:27:43;98070.06;;;16.64;75.58
27144;BME280;14672;50.250;8.312;2023-08-30T06:30:10;98065.91;;;16.71;75.12
27144;BME280;14672;50.250;8.312;2023-08-30T06:32:36;98070.06;;;16.81;74.81
27144;BME280;14672;50.250;8.312;2023-08-30T06:35:02;98076.88;;;16.83;75.31
27144;BME280;14672;50.250;8.312;2023-08-30T06:37:29;98078.44;;;16.96;75.21
27144;BME280;14672;50.250;8.312;2023-08-30T06:39:55;98074.53;;;16.99;75.25
27144;BME280;14672;50.250;8.312;2023-08-30T06:42:20;98073.22;;;17.11;74.75
27144;BME280;14672;50.250;8.312;2023-08-30T06:44:46;98074.25;;;17.19;75.41
27144;BME280;14672;50.250;8.312;2023-08-30T06:47:12;98066.38;;;17.36;74.39
27144;BME280;14672;50.250;8.312;2023-08-30T06:49:38;98067.16;;;17.36;73.81
27144;BME280;14672;50.250;8.312;2023-08-30T06:52:04;98072.63;;;17.40;73.03
27144;BME280;14672;50.250;8.312;2023-08-30T06:54:34;98066.63;;;17.55;72.75
27144;BME280;14672;50.250;8.312;2023-08-30T06:57:00;98066.34;;;17.64;72.27
27144;BME280;14672;50.250;8.312;2023-08-30T06:59:27;98056.38;;;17.76;71.99
27144;BME280;14672;50.250;8.312;2023-08-30T07:01:56;98063.75;;;17.71;72.01
27144;BME280;14672;50.250;8.312;2023-08-30T07:04:21;98061.09;;;17.73;72.99
27144;BME280;14672;50.250;8.312;2023-08-30T07:06:47;98058.13;;;17.96;71.76
27144;BME280;14672;50.250;8.312;2023-08-30T07:09:13;98057.84;;;18.05;72.57
27144;BME280;14672;50.250;8.312;2023-08-30T07:11:42;98052.03;;;18.16;71.97
27144;BME280;14672;50.250;8.312;2023-08-30T07:14:09;98058.84;;;18.13;72.33
27144;BME280;14672;50.250;8.312;2023-08-30T07:16:35;98049.88;;;18.27;71.72
27144;BME280;14672;50.250;8.312;2023-08-30T07:19:01;98054.09;;;18.26;72.91
27144;BME280;14672;50.250;8.312;2023-08-30T07:21:27;98048.78;;;18.36;72.33
27144;BME280;14672;50.250;8.312;2023-08-30T07:23:53;98048.75;;;18.42;72.46
27144;BME280;14672;50.250;8.312;2023-08-30T07:26:19;98046.34;;;18.51;72.10
27144;BME280;14672;50.250;8.312;2023-08-30T07:28:45;98032.47;;;18.55;72.45
27144;BME280;14672;50.250;8.312;2023-08-30T07:31:11;98040.28;;;18.60;72.07
27144;BME280;14672;50.250;8.312;2023-08-30T07:33:40;98047.13;;;18.57;71.14
27144;BME280;14672;50.250;8.312;2023-08-30T07:36:07;98043.22;;;18.49;71.86
27144;BME280;14672;50.250;8.312;2023-08-30T07:38:34;98048.69;;;18.58;71.63
27144;BME280;14672;50.250;8.312;2023-08-30T07:41:01;98048.81;;;18.77;71.18
27144;BME280;14672;50.250;8.312;2023-08-30T07:43:27;98054.28;;;18.81;71.73
27144;BME280;14672;50.250;8.312;2023-08-30T07:45:53;98044.22;;;18.93;71.09
27144;BME280;14672;50.250;8.312;2023-08-30T07:48:19;98041.59;;;18.95;70.86
27144;BME280;14672;50.250;8.312;2023-08-30T07:50:44;98045.16;;;19.06;71.06
27144;BME280;14672;50.250;8.312;2023-08-30T07:53:10;98047.84;;;18.99;71.13
27144;BME280;14672;50.250;8.312;2023-08-30T07:55:36;98048.09;;;19.01;71.06
27144;BME280;14672;50.250;8.312;2023-08-30T07:58:02;98047.38;;;18.95;71.13
27144;BME280;14672;50.250;8.312;2023-08-30T08:00:31;98042.66;;;18.92;72.03
27144;BME280;14672;50.250;8.312;2023-08-30T08:02:57;98038.13;;;19.02;71.43
27144;BME280;14672;50.250;8.312;2023-08-30T08:05:23;98038.53;;;19.17;70.80
27144;BME280;14672;50.250;8.312;2023-08-30T08:07:52;98034.81;;;19.22;70.76
27144;BME280;14672;50.250;8.312;2023-08-30T08:10:19;98042.84;;;19.29;70.50
27144;BME280;14672;50.250;8.312;2023-08-30T08:12:46;98043.03;;;19.37;70.78
27144;BME280;14672;50.250;8.312;2023-08-30T08:15:11;98042.56;;;19.33;69.99
27144;BME280;14672;50.250;8.312;2023-08-30T08:17:37;98047.34;;;19.24;70.73
27144;BME280;14672;50.250;8.312;2023-08-30T08:20:05;98047.88;;;19.23;70.60
27144;BME280;14672;50.250;8.312;2023-08-30T08:22:31;98041.47;;;19.36;70.07
27144;BME280;14672;50.250;8.312;2023-08-30T08:24:57;98038.28;;;19.39;71.03
27144;BME280;14672;50.250;8.312;2023-08-30T08:27:25;98034.00;;;19.51;70.00
27144;BME280;14672;50.250;8.312;2023-08-30T08:29:51;98041.28;;;19.28;71.01
27144;BME280;14672;50.250;8.312;2023-08-30T08:32:16;98045.16;;;19.60;69.72
27144;BME280;14672;50.250;8.312;2023-08-30T08:34:42;98041.19;;;19.63;69.74
27144;BME280;14672;50.250;8.312;2023-08-30T08:37:08;98044.38;;;19.60;69.76
27144;BME280;14672;50.250;8.312;2023-08-30T08:39:37;98041.63;;;19.73;69.70
27144;BME280;14672;50.250;8.312;2023-08-30T08:42:04;98050.31;;;19.67;69.36
27144;BME280;14672;50.250;8.312;2023-08-30T08:44:32;98042.97;;;19.91;69.19
27144;BME280;14672;50.250;8.312;2023-08-30T08:46:59;98044.16;;;20.01;68.76
27144;BME280;14672;50.250;8.312;2023-08-30T08:49:26;98039.03;;;19.94;68.75
27144;BME280;14672;50.250;8.312;2023-08-30T08:51:54;98035.16;;;20.10;68.58
27144;BME280;14672;50.250;8.312;2023-08-30T08:54:20;98047.16;;;20.14;67.74
27144;BME280;14672;50.250;8.312;2023-08-30T08:56:46;98034.44;;;20.23;67.41
27144;BME280;14672;50.250;8.312;2023-08-30T08:59:12;98038.41;;;20.20;66.67
27144;BME280;14672;50.250;8.312;2023-08-30T09:01:41;98033.28;;;20.12;66.29
27144;BME280;14672;50.250;8.312;2023-08-30T09:04:11;98038.09;;;20.23;65.24
27144;BME280;14672;50.250;8.312;2023-08-30T09:06:40;98029.53;;;20.17;64.59
27144;BME280;14672;50.250;8.312;2023-08-30T09:09:07;98033.69;;;20.22;64.19
27144;BME280;14672;50.250;8.312;2023-08-30T09:11:35;98026.56;;;20.23;64.04
27144;BME280;14672;50.250;8.312;2023-08-30T09:14:01;98030.19;;;20.29;64.62
27144;BME280;14672;50.250;8.312;2023-08-30T09:16:27;98026.44;;;20.34;64.18
27144;BME280;14672;50.250;8.312;2023-08-30T09:19:04;98018.47;;;20.40;63.81
27144;BME280;14672;50.250;8.312;2023-08-30T09:21:30;98026.28;;;20.45;64.64
27144;BME280;14672;50.250;8.312;2023-08-30T09:24:05;98014.81;;;20.21;65.68
27144;BME280;14672;50.250;8.312;2023-08-30T09:26:34;98012.16;;;20.60;64.71
27144;BME280;14672;50.250;8.312;2023-08-30T09:29:05;98004.63;;;20.71;64.81
27144;BME280;14672;50.250;8.312;2023-08-30T09:31:37;98010.72;;;20.67;65.31
27144;BME280;14672;50.250;8.312;2023-08-30T09:34:04;98002.84;;;20.68;64.36
27144;BME280;14672;50.250;8.312;2023-08-30T09:36:39;98011.69;;;20.88;64.19
27144;BME280;14672;50.250;8.312;2023-08-30T09:39:10;98003.56;;;20.87;63.45
27144;BME280;14672;50.250;8.312;2023-08-30T09:41:50;98006.91;;;20.78;63.44
27144;BME280;14672;50.250;8.312;2023-08-30T09:44:20;97996.44;;;20.75;61.91
27144;BME280;14672;50.250;8.312;2023-08-30T09:46:50;97998.69;;;20.82;62.88
27144;BME280;14672;50.250;8.312;2023-08-30T09:49:26;98002.50;;;20.90;61.07
27144;BME280;14672;50.250;8.312;2023-08-30T09:51:55;97981.84;;;20.99;59.90
27144;BME280;14672;50.250;8.312;2023-08-30T09:54:25;97982.63;;;20.99;59.44
27144;BME280;14672;50.250;8.312;2023-08-30T09:56:54;97987.97;;;21.08;59.82
27144;BME280;14672;50.250;8.312;2023-08-30T09:59:22;97989.69;;;21.30;59.37
27144;BME280;14672;50.250;8.312;2023-08-30T10:01:50;97982.72;;;21.26;59.15
27144;BME280;14672;50.250;8.312;2023-08-30T10:04:20;97985.81;;;21.28;58.37
27144;BME280;14672;50.250;8.312;2023-08-30T10:06:47;97983.28;;;21.50;58.53
27144;BME280;14672;50.250;8.312;2023-08-30T10:09:15;97973.19;;;21.57;58.24
27144;BME280;14672;50.250;8.312;2023-08-30T10:11:41;97975.06;;;21.68;57.79
27144;BME280;14672;50.250;8.312;2023-08-30T10:14:07;97975.59;;;21.66;57.29
27144;BME280;14672;50.250;8.312;2023-08-30T10:16:44;97975.50;;;21.85;56.72
27144;BME280;14672;50.250;8.312;2023-08-30T10:19:23;97965.03;;;22.08;56.08
27144;BME280;14672;50.250;8.312;2023-08-30T10:22:14;97969.41;;;22.22;56.45
27144;BME280;14672;50.250;8.312;2023-08-30T10:27:25;97959.63;;;22.25;54.21
27144;BME280;14672;50.250;8.312;2023-08-30T10:29:52;97963.81;;;22.37;54.36
27144;BME280;14672;50.250;8.312;2023-08-30T10:32:22;97960.69;;;22.69;54.68
27144;BME280;14672;50.250;8.312;2023-08-30T10:34:51;97968.34;;;22.80;54.09
27144;BME280;14672;50.250;8.312;2023-08-30T10:37:27;97953.22;;;22.94;54.22
27144;BME280;14672;50.250;8.312;2023-08-30T10:39:59;97946.25;;;23.18;52.00
27144;BME280;14672;50.250;8.312;2023-08-30T10:42:25;97949.25;;;23.33;54.08
27144;BME280;14672;50.250;8.312;2023-08-30T10:45:00;97938.25;;;23.53;51.31
27144;BME280;14672;50.250;8.312;2023-08-30T10:47:30;97941.28;;;23.83;50.58
27144;BME280;14672;50.250;8.312;2023-08-30T10:49:59;97938.72;;;23.72;50.07
27144;BME280;14672;50.250;8.312;2023-08-30T10:52:27;97931.03;;;23.82;49.81
27144;BME280;14672;50.250;8.312;2023-08-30T10:55:07;97926.13;;;24.13;49.42
27144;BME280;14672;50.250;8.312;2023-08-30T10:57:33;97929.63;;;24.11;49.79
27144;BME280;14672;50.250;8.312;2023-08-30T11:00:17;97925.47;;;24.35;49.63
27144;BME280;14672;50.250;8.312;2023-08-30T11:02:46;97926.06;;;24.49;47.97
27144;BME280;14672;50.250;8.312;2023-08-30T11:05:12;97909.00;;;24.38;48.59
27144;BME280;14672;50.250;8.312;2023-08-30T11:07:38;97897.78;;;24.42;48.73
27144;BME280;14672;50.250;8.312;2023-08-30T11:10:07;97912.13;;;24.47;48.31
27144;BME280;14672;50.250;8.312;2023-08-30T11:12:34;97899.59;;;24.60;47.84
27144;BME280;14672;50.250;8.312;2023-08-30T11:15:01;97896.84;;;24.47;47.24
27144;BME280;14672;50.250;8.312;2023-08-30T11:17:28;97905.31;;;24.29;47.98
27144;BME280;14672;50.250;8.312;2023-08-30T11:20:14;97909.06;;;24.02;48.86
27144;BME280;14672;50.250;8.312;2023-08-30T11:22:44;97912.41;;;23.70;47.44
27144;BME280;14672;50.250;8.312;2023-08-30T11:25:12;97918.94;;;23.63;48.01
27144;BME280;14672;50.250;8.312;2023-08-30T11:27:39;97912.84;;;23.46;48.21
27144;BME280;14672;50.250;8.312;2023-08-30T11:30:06;97914.56;;;23.13;48.78
27144;BME280;14672;50.250;8.312;2023-08-30T11:32:35;97924.22;;;23.15;48.65
27144;BME280;14672;50.250;8.312;2023-08-30T11:35:03;97909.09;;;23.09;48.07
27144;BME280;14672;50.250;8.312;2023-08-30T11:37:30;97909.22;;;22.96;47.77
27144;BME280;14672;50.250;8.312;2023-08-30T11:39:56;97917.66;;;22.94;47.28
27144;BME280;14672;50.250;8.312;2023-08-30T11:42:22;97910.88;;;22.50;47.90
27144;BME280;14672;50.250;8.312;2023-08-30T11:44:50;97905.44;;;22.67;47.74
27144;BME280;14672;50.250;8.312;2023-08-30T11:47:28;97907.56;;;22.67;48.28
27144;BME280;14672;50.250;8.312;2023-08-30T11:49:56;97916.78;;;22.24;49.32
27144;BME280;14672;50.250;8.312;2023-08-30T11:52:23;97911.38;;;22.41;49.38
27144;BME280;14672;50.250;8.312;2023-08-30T11:54:55;97907.69;;;22.20;49.50
27144;BME280;14672;50.250;8.312;2023-08-30T11:57:21;97914.50;;;22.09;49.79
27144;BME280;14672;50.250;8.312;2023-08-30T11:59:47;97910.13;;;22.16;49.64
27144;BME280;14672;50.250;8.312;2023-08-30T12:02:15;97903.88;;;22.25;49.81
27144;BME280;14672;50.250;8.312;2023-08-30T12:04:46;97913.59;;;22.14;50.44
27144;BME280;14672;50.250;8.312;2023-08-30T12:07:26;97906.16;;;22.39;50.09
27144;BME280;14672;50.250;8.312;2023-08-30T12:09:52;97891.44;;;22.37;49.31
27144;BME280;14672;50.250;8.312;2023-08-30T12:12:29;97899.38;;;22.37;49.95
27144;BME280;14672;50.250;8.312;2023-08-30T12:14:55;97896.53;;;22.24;50.77
27144;BME280;14672;50.250;8.312;2023-08-30T12:17:21;97903.69;;;22.43;50.57
27144;BME280;14672;50.250;8.312;2023-08-30T12:19:58;97897.69;;;22.62;50.21
27144;BME280;14672;50.250;8.312;2023-08-30T12:22:23;97898.59;;;22.99;49.80
27144;BME280;14672;50.250;8.312;2023-08-30T12:24:49;97890.59;;;23.12;49.81
27144;BME280;14672;50.250;8.312;2023-08-30T12:27:15;97894.75;;;23.24;49.75
27144;BME280;14672;50.250;8.312;2023-08-30T12:29:41;97896.16;;;23.38;49.88
27144;BME280;14672;50.250;8.312;2023-08-30T12:32:07;97888.81;;;23.66;48.61
27144;BME280;14672;50.250;8.312;2023-08-30T12:34:34;97875.84;;;23.67;49.10
27144;BME280;14672;50.250;8.312;2023-08-30T12:37:00;97883.78;;;23.66;48.25
27144;BME280;14672;50.250;8.312;2023-08-30T12:39:27;97881.78;;;23.54;49.19
27144;BME280;14672;50.250;8.312;2023-08-30T12:41:53;97871.66;;;23.11;48.92
27144;BME280;14672;50.250;8.312;2023-08-30T12:44:19;97867.88;;;23.52;48.33
27144;BME280;14672;50.250;8.312;2023-08-30T12:46:44;97869.06;;;23.28;49.18
27144;BME280;14672;50.250;8.312;2023-08-30T12:49:10;97865.53;;;23.22;48.30
27144;BME280;14672;50.250;8.312;2023-08-30T12:51:36;97865.03;;;23.31;47.84
27144;BME280;14672;50.250;8.312;2023-08-30T12:54:02;97864.72;;;23.14;48.09
27144;BME280;14672;50.250;8.312;2023-08-30T12:56:27;97860.25;;;23.13;48.47
27144;BME280;14672;50.250;8.312;2023-08-30T12:58:53;97854.97;;;23.32;48.13
27144;BME280;14672;50.250;8.312;2023-08-30T13:01:19;97860.94;;;23.27;48.20
27144;BME280;14672;50.250;8.312;2023-08-30T13:03:44;97863.56;;;23.17;48.42
27144;BME280;14672;50.250;8.312;2023-08-30T13:06:10;97869.94;;;23.16;48.40
27144;BME280;14672;50.250;8.312;2023-08-30T13:08:36;97876.41;;;23.01;48.43
27144;BME280;14672;50.250;8.312;2023-08-30T13:11:02;97874.41;;;22.88;48.42